sensor_id;sensor_type;location;lat;lon;timestamp;pressure;altitude;pressure_sealevel;temperature;humidity
20424;BME280;10371;49.042;8.002;2023-02-03T00:00:29;101241.13;;;7.38;96.90
20424;BME280;10371;49.042;8.002;2023-02-03T00:01:30;101234.44;;;7.34;97.11
20424;BME280;10371;49.042;8.002;2023-02-03T00:02:31;101248.28;;;7.33;97.22
20424;BME280;10371;49.042;8.002;2023-02-03T00:03:31;101244.84;;;7.32;97.43
20424;BME280;10371;49.042;8.002;2023-02-03T00:04:31;101251.63;;;7.35;97.29
20424;BME280;10371;49.042;8.002;2023-02-03T00:05:33;101249.78;;;7.38;97.40
20424;BME280;10371;49.042;8.002;2023-02-03T00:06:35;101246.31;;;7.38;97.30
20424;BME280;10371;49.042;8.002;2023-02-03T00:07:36;101242.06;;;7.37;97.53
20424;BME280;10371;49.042;8.002;2023-02-03T00:08:37;101245.63;;;7.34;97.24
20424;BME280;10371;49.042;8.002;2023-02-03T00:09:38;101240.53;;;7.33;97.22
20424;BME280;10371;49.042;8.002;2023-02-03T00:10:39;101251.63;;;7.35;97.39
20424;BME280;10371;49.042;8.002;2023-02-03T00:11:39;101243.72;;;7.38;97.28
20424;BME280;10371;49.042;8.002;2023-02-03T00:12:39;101246.47;;;7.35;97.58
20424;BME280;10371;49.042;8.002;2023-02-03T00:13:40;101246.31;;;7.38;97.34
20424;BME280;10371;49.042;8.002;2023-02-03T00:14:40;101247.94;;;7.41;97.44
20424;BME280;10371;49.042;8.002;2023-02-03T00:15:40;101235.94;;;7.38;97.37
20424;BME280;10371;49.042;8.002;2023-02-03T00:16:40;101232.66;;;7.34;97.44
20424;BME280;10371;49.042;8.002;2023-02-03T00:17:41;101227.56;;;7.33;97.72
20424;BME280;10371;49.042;8.002;2023-02-03T00:18:41;101220.63;;;7.33;97.52
20424;BME280;10371;49.042;8.002;2023-02-03T00:19:41;101224.06;;;7.34;97.77
20424;BME280;10371;49.042;8.002;2023-02-03T00:20:42;101229.25;;;7.34;98.04
20424;BME280;10371;49.042;8.002;2023-02-03T00:21:42;101224.91;;;7.34;98.08
20424;BME280;10371;49.042;8.002;2023-02-03T00:22:42;101221.41;;;7.35;97.74
20424;BME280;10371;49.042;8.002;2023-02-03T00:23:43;101225.72;;;7.35;97.80
20424;BME280;10371;49.042;8.002;2023-02-03T00:24:43;101234.44;;;7.34;97.57
20424;BME280;10371;49.042;8.002;2023-02-03T00:25:43;101230.91;;;7.35;97.76
20424;BME280;10371;49.042;8.002;2023-02-03T00:26:43;101230.91;;;7.35;97.69
20424;BME280;10371;49.042;8.002;2023-02-03T00:27:44;101237.06;;;7.32;97.90
20424;BME280;10371;49.042;8.002;2023-02-03T00:28:44;101238.03;;;7.30;98.13
20424;BME280;10371;49.042;8.002;2023-02-03T00:29:45;101231.97;;;7.31;98.11
20424;BME280;10371;49.042;8.002;2023-02-03T00:30:45;101231.88;;;7.32;98.19
20424;BME280;10371;49.042;8.002;2023-02-03T00:31:45;101234.28;;;7.37;97.98
20424;BME280;10371;49.042;8.002;2023-02-03T00:32:45;101240.44;;;7.34;98.33
20424;BME280;10371;49.042;8.002;2023-02-03T00:33:46;101238.81;;;7.32;98.12
20424;BME280;10371;49.042;8.002;2023-02-03T00:34:47;101236.22;;;7.32;98.35
20424;BME280;10371;49.042;8.002;2023-02-03T00:35:47;101244.94;;;7.31;98.38
20424;BME280;10371;49.042;8.002;2023-02-03T00:36:48;101236.22;;;7.32;98.62
20424;BME280;10371;49.042;8.002;2023-02-03T00:37:56;101239.75;;;7.31;98.71
20424;BME280;10371;49.042;8.002;2023-02-03T00:38:56;101247.44;;;7.32;98.86
20424;BME280;10371;49.042;8.002;2023-02-03T00:39:57;101234.69;;;7.28;99.14
20424;BME280;10371;49.042;8.002;2023-02-03T00:40:57;101233.78;;;7.29;99.17
20424;BME280;10371;49.042;8.002;2023-02-03T00:41:58;101237.34;;;7.26;99.35
20424;BME280;10371;49.042;8.002;2023-02-03T00:42:58;101242.47;;;7.28;99.65
20424;BME280;10371;49.042;8.002;2023-02-03T00:43:58;101245.91;;;7.28;99.63
20424;BME280;10371;49.042;8.002;2023-02-03T00:44:58;101252.88;;;7.26;99.82
20424;BME280;10371;49.042;8.002;2023-02-03T00:45:59;101241.56;;;7.29;99.91
20424;BME280;10371;49.042;8.002;2023-02-03T00:46:59;101242.38;;;7.29;99.98
20424;BME280;10371;49.042;8.002;2023-02-03T00:47:59;101244.94;;;7.31;99.91
20424;BME280;10371;49.042;8.002;2023-02-03T00:48:59;101246.47;;;7.35;100.00
20424;BME280;10371;49.042;8.002;2023-02-03T00:50:00;101242.19;;;7.34;99.67
20424;BME280;10371;49.042;8.002;2023-02-03T00:51:00;101247.19;;;7.38;99.51
20424;BME280;10371;49.042;8.002;2023-02-03T00:52:00;101239.19;;;7.43;99.32
20424;BME280;10371;49.042;8.002;2023-02-03T00:53:00;101238.44;;;7.41;99.54
20424;BME280;10371;49.042;8.002;2023-02-03T00:54:01;101233.16;;;7.43;99.16
20424;BME280;10371;49.042;8.002;2023-02-03T00:55:01;101244.31;;;7.45;99.22
20424;BME280;10371;49.042;8.002;2023-02-03T00:56:02;101246.13;;;7.43;99.54
20424;BME280;10371;49.042;8.002;2023-02-03T00:57:02;101238.44;;;7.41;99.50
20424;BME280;10371;49.042;8.002;2023-02-03T00:58:03;101229.88;;;7.39;99.39
20424;BME280;10371;49.042;8.002;2023-02-03T00:59:03;101232.25;;;7.44;99.90
20424;BME280;10371;49.042;8.002;2023-02-03T01:00:04;101232.34;;;7.42;99.72
20424;BME280;10371;49.042;8.002;2023-02-03T01:01:04;101234.09;;;7.42;99.56
20424;BME280;10371;49.042;8.002;2023-02-03T01:02:05;101225.34;;;7.44;99.50
20424;BME280;10371;49.042;8.002;2023-02-03T01:03:05;101226.19;;;7.45;99.66
20424;BME280;10371;49.042;8.002;2023-02-03T01:04:06;101220.31;;;7.41;99.81
20424;BME280;10371;49.042;8.002;2023-02-03T01:05:06;101215.22;;;7.38;100.00
20424;BME280;10371;49.042;8.002;2023-02-03T01:06:09;101211.06;;;7.35;100.00
20424;BME280;10371;49.042;8.002;2023-02-03T01:07:09;101210.31;;;7.32;100.00
20424;BME280;10371;49.042;8.002;2023-02-03T01:08:11;101205.97;;;7.32;100.00
20424;BME280;10371;49.042;8.002;2023-02-03T01:09:11;101206.84;;;7.33;100.00
20424;BME280;10371;49.042;8.002;2023-02-03T01:10:11;101194.78;;;7.32;100.00
20424;BME280;10371;49.042;8.002;2023-02-03T01:11:18;101198.16;;;7.34;100.00
20424;BME280;10371;49.042;8.002;2023-02-03T01:12:19;101192.28;;;7.30;100.00
20424;BME280;10371;49.042;8.002;2023-02-03T01:13:19;101190.66;;;7.28;100.00
20424;BME280;10371;49.042;8.002;2023-02-03T01:14:19;101195.34;;;7.20;100.00
20424;BME280;10371;49.042;8.002;2023-02-03T01:15:20;101190.06;;;7.21;100.00
20424;BME280;10371;49.042;8.002;2023-02-03T01:16:22;101196.03;;;7.23;100.00
20424;BME280;10371;49.042;8.002;2023-02-03T01:17:22;101201.22;;;7.23;100.00
20424;BME280;10371;49.042;8.002;2023-02-03T01:18:23;101189.94;;;7.24;100.00
20424;BME280;10371;49.042;8.002;2023-02-03T01:19:23;101182.44;;;7.18;100.00
20424;BME280;10371;49.042;8.002;2023-02-03T01:20:24;101193.59;;;7.20;100.00
20424;BME280;10371;49.042;8.002;2023-02-03T01:21:25;101195.34;;;7.20;100.00
20424;BME280;10371;49.042;8.002;2023-02-03T01:22:28;101205.91;;;7.15;100.00
20424;BME280;10371;49.042;8.002;2023-02-03T01:23:29;101209.19;;;7.19;100.00
20424;BME280;10371;49.042;8.002;2023-02-03T01:24:29;101216.94;;;7.19;100.00
20424;BME280;10371;49.042;8.002;2023-02-03T01:25:30;101223.84;;;7.20;100.00
20424;BME280;10371;49.042;8.002;2023-02-03T01:26:30;101217.88;;;7.18;100.00
20424;BME280;10371;49.042;8.002;2023-02-03T01:27:32;101217.72;;;7.21;100.00
20424;BME280;10371;49.042;8.002;2023-02-03T01:28:32;101225.50;;;7.21;100.00
20424;BME280;10371;49.042;8.002;2023-02-03T01:29:32;101231.59;;;7.20;100.00
20424;BME280;10371;49.042;8.002;2023-02-03T01:30:33;101229.78;;;7.22;100.00
20424;BME280;10371;49.042;8.002;2023-02-03T01:31:36;101231.59;;;7.20;100.00
20424;BME280;10371;49.042;8.002;2023-02-03T01:32:38;101229.91;;;7.19;100.00
20424;BME280;10371;49.042;8.002;2023-02-03T01:33:39;101231.59;;;7.20;100.00
20424;BME280;10371;49.042;8.002;2023-02-03T01:34:40;101223.97;;;7.16;100.00
20424;BME280;10371;49.042;8.002;2023-02-03T01:35:40;101221.94;;;7.23;100.00
20424;BME280;10371;49.042;8.002;2023-02-03T01:36:40;101227.22;;;7.22;100.00
20424;BME280;10371;49.042;8.002;2023-02-03T01:37:41;101222.91;;;7.21;100.00
20424;BME280;10371;49.042;8.002;2023-02-03T01:38:41;101223.06;;;7.18;100.00
20424;BME280;10371;49.042;8.002;2023-02-03T01:39:42;101223.19;;;7.14;100.00
20424;BME280;10371;49.042;8.002;2023-02-03T01:40:43;101222.53;;;7.09;100.00
20424;BME280;10371;49.042;8.002;2023-02-03T01:41:44;101222.41;;;7.12;100.00
20424;BME280;10371;49.042;8.002;2023-02-03T01:42:44;101220.66;;;7.13;100.00
20424;BME280;10371;49.042;8.002;2023-02-03T01:43:48;101215.41;;;7.14;100.00
20424;BME280;10371;49.042;8.002;2023-02-03T01:44:49;101216.34;;;7.13;100.00
20424;BME280;10371;49.042;8.002;2023-02-03T01:45:51;101214.78;;;7.09;100.00
20424;BME280;10371;49.042;8.002;2023-02-03T01:46:51;101218.94;;;7.13;100.00
20424;BME280;10371;49.042;8.002;2023-02-03T01:47:54;101216.34;;;7.13;100.00
20424;BME280;10371;49.042;8.002;2023-02-03T01:50:12;101193.16;;;7.10;100.00
20424;BME280;10371;49.042;8.002;2023-02-03T01:51:13;101199.25;;;7.09;100.00
20424;BME280;10371;49.042;8.002;2023-02-03T01:52:14;101200.84;;;7.12;100.00
20424;BME280;10371;49.042;8.002;2023-02-03T01:53:15;101199.88;;;7.14;100.00
20424;BME280;10371;49.042;8.002;2023-02-03T01:54:19;101194.66;;;7.16;100.00
20424;BME280;10371;49.042;8.002;2023-02-03T01:55:25;101192.16;;;7.13;100.00
20424;BME280;10371;49.042;8.002;2023-02-03T01:56:29;101172.38;;;7.12;100.00
20424;BME280;10371;49.042;8.002;2023-02-03T01:57:36;101166.50;;;7.08;100.00
20424;BME280;10371;49.042;8.002;2023-02-03T01:58:39;101161.50;;;7.04;100.00
20424;BME280;10371;49.042;8.002;2023-02-03T01:59:41;101156.13;;;7.08;100.00
20424;BME280;10371;49.042;8.002;2023-02-03T02:00:42;101149.91;;;7.12;100.00
20424;BME280;10371;49.042;8.002;2023-02-03T02:01:43;101139.63;;;7.11;100.00
20424;BME280;10371;49.042;8.002;2023-02-03T02:02:45;101133.47;;;7.13;100.00
20424;BME280;10371;49.042;8.002;2023-02-03T02:03:53;101117.97;;;7.12;100.00
20424;BME280;10371;49.042;8.002;2023-02-03T02:05:06;101117.94;;;7.13;100.00
20424;BME280;10371;49.042;8.002;2023-02-03T02:06:12;101105.03;;;7.12;100.00
20424;BME280;10371;49.042;8.002;2023-02-03T02:07:13;101100.06;;;7.07;100.00
20424;BME280;10371;49.042;8.002;2023-02-03T02:08:14;101097.59;;;7.04;100.00
20424;BME280;10371;49.042;8.002;2023-02-03T02:09:17;101089.09;;;7.02;100.00
20424;BME280;10371;49.042;8.002;2023-02-03T02:10:17;101098.44;;;7.05;100.00
20424;BME280;10371;49.042;8.002;2023-02-03T02:11:19;101097.59;;;7.04;100.00
20424;BME280;10371;49.042;8.002;2023-02-03T02:12:22;101087.41;;;7.01;100.00
20424;BME280;10371;49.042;8.002;2023-02-03T02:13:23;101115.09;;;6.99;100.00
20424;BME280;10371;49.042;8.002;2023-02-03T02:14:23;101126.38;;;6.98;100.00
20424;BME280;10371;49.042;8.002;2023-02-03T02:15:33;101142.69;;;7.00;100.00
20424;BME280;10371;49.042;8.002;2023-02-03T02:17:03;101149.47;;;7.03;100.00
20424;BME280;10371;49.042;8.002;2023-02-03T02:18:27;101156.53;;;6.99;100.00
20424;BME280;10371;49.042;8.002;2023-02-03T02:19:55;101148.69;;;7.01;100.00
20424;BME280;10371;49.042;8.002;2023-02-03T02:22:24;101144.50;;;6.98;100.00
20424;BME280;10371;49.042;8.002;2023-02-03T02:34:03;101122.16;;;6.96;100.00
20424;BME280;10371;49.042;8.002;2023-02-03T02:36:38;101117.22;;;6.91;100.00
20424;BME280;10371;49.042;8.002;2023-02-03T02:38:02;101110.06;;;6.96;100.00
20424;BME280;10371;49.042;8.002;2023-02-03T02:39:15;101116.09;;;6.97;100.00
20424;BME280;10371;49.042;8.002;2023-02-03T02:40:23;101111.91;;;6.94;100.00
20424;BME280;10371;49.042;8.002;2023-02-03T02:41:36;101119.66;;;6.94;100.00
20424;BME280;10371;49.042;8.002;2023-02-03T02:43:03;101123.22;;;6.91;100.00
20424;BME280;10371;49.042;8.002;2023-02-03T02:45:24;101119.81;;;6.91;100.00
20424;BME280;10371;49.042;8.002;2023-02-03T02:46:31;101126.56;;;6.93;100.00
20424;BME280;10371;49.042;8.002;2023-02-03T02:47:33;101123.94;;;6.95;100.00
20424;BME280;10371;49.042;8.002;2023-02-03T02:48:51;101129.09;;;6.95;100.00
20424;BME280;10371;49.042;8.002;2023-02-03T02:50:00;101128.19;;;6.96;100.00
20424;BME280;10371;49.042;8.002;2023-02-03T02:51:04;101130.84;;;6.94;100.00
20424;BME280;10371;49.042;8.002;2023-02-03T02:52:07;101133.34;;;6.96;100.00
20424;BME280;10371;49.042;8.002;2023-02-03T02:53:09;101131.75;;;6.93;100.00
20424;BME280;10371;49.042;8.002;2023-02-03T02:54:14;101123.94;;;6.95;100.00
20424;BME280;10371;49.042;8.002;2023-02-03T02:55:25;101112.78;;;6.93;100.00
20424;BME280;10371;49.042;8.002;2023-02-03T02:56:28;101112.72;;;6.94;100.00
20424;BME280;10371;49.042;8.002;2023-02-03T02:57:33;101115.31;;;6.94;100.00
20424;BME280;10371;49.042;8.002;2023-02-03T02:58:36;101117.91;;;6.94;100.00
20424;BME280;10371;49.042;8.002;2023-02-03T02:59:38;101122.25;;;6.94;100.00
20424;BME280;10371;49.042;8.002;2023-02-03T03:00:39;101122.25;;;6.94;100.00
20424;BME280;10371;49.042;8.002;2023-02-03T03:01:40;101128.41;;;6.91;100.00
20424;BME280;10371;49.042;8.002;2023-02-03T03:02:40;101118.88;;;6.92;100.00
20424;BME280;10371;49.042;8.002;2023-02-03T03:03:42;101125.88;;;6.90;100.00
20424;BME280;10371;49.042;8.002;2023-02-03T03:04:45;101124.91;;;6.92;100.00
20424;BME280;10371;49.042;8.002;2023-02-03T03:05:58;101119.66;;;6.94;100.00
20424;BME280;10371;49.042;8.002;2023-02-03T03:07:05;101118.75;;;6.95;100.00
20424;BME280;10371;49.042;8.002;2023-02-03T03:08:08;101114.34;;;6.97;100.00
20424;BME280;10371;49.042;8.002;2023-02-03T03:09:24;101112.72;;;6.94;100.00
20424;BME280;10371;49.042;8.002;2023-02-03T03:10:29;101110.16;;;6.94;100.00
20424;BME280;10371;49.042;8.002;2023-02-03T03:11:33;101107.59;;;6.93;100.00
20424;BME280;10371;49.042;8.002;2023-02-03T03:12:36;101105.09;;;6.91;100.00
20424;BME280;10371;49.042;8.002;2023-02-03T03:13:41;101108.38;;;6.95;100.00
20424;BME280;10371;49.042;8.002;2023-02-03T03:14:47;101101.59;;;6.92;100.00
20424;BME280;10371;49.042;8.002;2023-02-03T03:15:49;101100.91;;;6.89;100.00
20424;BME280;10371;49.042;8.002;2023-02-03T03:16:54;101106.09;;;6.89;100.00
20424;BME280;10371;49.042;8.002;2023-02-03T03:19:23;101109.31;;;6.94;100.00
20424;BME280;10371;49.042;8.002;2023-02-03T03:20:25;101111.75;;;6.97;100.00
20424;BME280;10371;49.042;8.002;2023-02-03T03:21:30;101121.38;;;6.93;100.00
20424;BME280;10371;49.042;8.002;2023-02-03T03:22:41;101126.66;;;6.92;100.00
20424;BME280;10371;49.042;8.002;2023-02-03T03:23:45;101132.53;;;6.96;100.00
20424;BME280;10371;49.042;8.002;2023-02-03T03:24:51;101122.50;;;6.88;100.00
20424;BME280;10371;49.042;8.002;2023-02-03T03:26:01;101137.06;;;6.90;100.00
20424;BME280;10371;49.042;8.002;2023-02-03T03:27:09;101138.63;;;6.94;100.00
20424;BME280;10371;49.042;8.002;2023-02-03T03:28:15;101136.91;;;6.93;100.00
20424;BME280;10371;49.042;8.002;2023-02-03T03:29:29;101142.97;;;6.94;100.00
20424;BME280;10371;49.042;8.002;2023-02-03T03:30:34;101154.72;;;7.01;100.00
20424;BME280;10371;49.042;8.002;2023-02-03T03:31:35;101152.13;;;7.01;100.00
20424;BME280;10371;49.042;8.002;2023-02-03T03:32:35;101153.03;;;7.00;100.00
20424;BME280;10371;49.042;8.002;2023-02-03T03:33:37;101151.16;;;7.04;100.00
20424;BME280;10371;49.042;8.002;2023-02-03T03:34:38;101151.25;;;7.02;100.00
20424;BME280;10371;49.042;8.002;2023-02-03T03:35:45;101150.38;;;7.02;100.00
20424;BME280;10371;49.042;8.002;2023-02-03T03:37:04;101150.31;;;7.03;100.00
20424;BME280;10371;49.042;8.002;2023-02-03T03:38:23;101149.41;;;7.04;100.00
20424;BME280;10371;49.042;8.002;2023-02-03T03:39:41;101147.53;;;7.08;100.00
20424;BME280;10371;49.042;8.002;2023-02-03T03:40:50;101149.19;;;7.09;100.00
20424;BME280;10371;49.042;8.002;2023-02-03T03:43:13;101150.69;;;7.14;100.00
20424;BME280;10371;49.042;8.002;2023-02-03T03:44:15;101153.25;;;7.14;100.00
20424;BME280;10371;49.042;8.002;2023-02-03T03:46:34;101160.13;;;7.15;100.00
20424;BME280;10371;49.042;8.002;2023-02-03T03:48:49;101165.88;;;7.22;100.00
20424;BME280;10371;49.042;8.002;2023-02-03T03:49:53;101168.53;;;7.21;100.00
20424;BME280;10371;49.042;8.002;2023-02-03T03:51:01;101172.66;;;7.25;100.00
20424;BME280;10371;49.042;8.002;2023-02-03T03:52:06;101166.50;;;7.27;100.00
20424;BME280;10371;49.042;8.002;2023-02-03T03:53:09;101167.41;;;7.26;100.00
20424;BME280;10371;49.042;8.002;2023-02-03T03:54:14;101168.19;;;7.28;100.00
20424;BME280;10371;49.042;8.002;2023-02-03T03:55:16;101177.56;;;7.31;100.00
20424;BME280;10371;49.042;8.002;2023-02-03T03:56:28;101186.13;;;7.33;100.00
20424;BME280;10371;49.042;8.002;2023-02-03T03:57:44;101177.56;;;7.31;100.00
20424;BME280;10371;49.042;8.002;2023-02-03T03:58:48;101191.91;;;7.38;100.00
20424;BME280;10371;49.042;8.002;2023-02-03T03:59:52;101187.00;;;7.32;100.00
20424;BME280;10371;49.042;8.002;2023-02-03T04:00:55;101189.47;;;7.35;100.00
20424;BME280;10371;49.042;8.002;2023-02-03T04:01:58;101181.97;;;7.29;100.00
20424;BME280;10371;49.042;8.002;2023-02-03T04:03:12;101184.75;;;7.24;100.00
20424;BME280;10371;49.042;8.002;2023-02-03T04:04:15;101192.41;;;7.27;100.00
20424;BME280;10371;49.042;8.002;2023-02-03T04:05:15;101189.88;;;7.26;100.00
20424;BME280;10371;49.042;8.002;2023-02-03T04:06:16;101183.03;;;7.25;100.00
20424;BME280;10371;49.042;8.002;2023-02-03T04:07:16;101165.66;;;7.27;100.00
20424;BME280;10371;49.042;8.002;2023-02-03T04:08:16;101171.75;;;7.26;100.00
20424;BME280;10371;49.042;8.002;2023-02-03T04:09:16;101163.84;;;7.29;100.00
20424;BME280;10371;49.042;8.002;2023-02-03T04:10:38;101155.03;;;7.33;100.00
20424;BME280;10371;49.042;8.002;2023-02-03T04:11:39;101157.53;;;7.34;100.00
20424;BME280;10371;49.042;8.002;2023-02-03T04:12:57;101150.47;;;7.38;100.00
20424;BME280;10371;49.042;8.002;2023-02-03T04:13:58;101151.09;;;7.43;100.00
20424;BME280;10371;49.042;8.002;2023-02-03T04:14:58;101156.34;;;7.42;100.00
20424;BME280;10371;49.042;8.002;2023-02-03T04:15:58;101145.22;;;7.39;100.00
20424;BME280;10371;49.042;8.002;2023-02-03T04:16:59;101139.91;;;7.43;100.00
20424;BME280;10371;49.042;8.002;2023-02-03T04:18:00;101141.03;;;7.37;100.00
20424;BME280;10371;49.042;8.002;2023-02-03T04:19:00;101146.88;;;7.41;100.00
20424;BME280;10371;49.042;8.002;2023-02-03T04:20:03;101142.69;;;7.38;100.00
20424;BME280;10371;49.042;8.002;2023-02-03T04:21:03;101151.09;;;7.43;100.00
20424;BME280;10371;49.042;8.002;2023-02-03T04:22:03;101146.06;;;7.40;100.00
20424;BME280;10371;49.042;8.002;2023-02-03T04:23:04;101154.59;;;7.42;100.00
20424;BME280;10371;49.042;8.002;2023-02-03T04:24:04;101155.44;;;7.43;100.00
20424;BME280;10371;49.042;8.002;2023-02-03T04:25:05;101162.94;;;7.49;100.00
20424;BME280;10371;49.042;8.002;2023-02-03T04:26:05;101157.59;;;7.52;100.00
20424;BME280;10371;49.042;8.002;2023-02-03T04:27:06;101161.16;;;7.49;100.00
20424;BME280;10371;49.042;8.002;2023-02-03T04:28:06;101154.16;;;7.51;100.00
20424;BME280;10371;49.042;8.002;2023-02-03T04:29:06;101164.47;;;7.53;100.00
20424;BME280;10371;49.042;8.002;2023-02-03T04:30:08;101154.03;;;7.54;100.00
20424;BME280;10371;49.042;8.002;2023-02-03T04:31:08;101150.44;;;7.57;100.00
20424;BME280;10371;49.042;8.002;2023-02-03T04:32:09;101148.69;;;7.57;100.00
20424;BME280;10371;49.042;8.002;2023-02-03T04:33:09;101138.47;;;7.54;100.00
20424;BME280;10371;49.042;8.002;2023-02-03T04:34:09;101140.09;;;7.57;100.00
20424;BME280;10371;49.042;8.002;2023-02-03T04:35:09;101147.09;;;7.55;100.00
20424;BME280;10371;49.042;8.002;2023-02-03T04:36:10;101142.75;;;7.55;100.00
20424;BME280;10371;49.042;8.002;2023-02-03T04:37:10;101147.03;;;7.56;100.00
20424;BME280;10371;49.042;8.002;2023-02-03T04:38:10;101142.75;;;7.55;100.00
20424;BME280;10371;49.042;8.002;2023-02-03T04:39:10;101147.16;;;7.53;100.00
20424;BME280;10371;49.042;8.002;2023-02-03T04:40:11;101163.34;;;7.58;100.00
20424;BME280;10371;49.042;8.002;2023-02-03T04:41:12;101169.31;;;7.60;100.00
20424;BME280;10371;49.042;8.002;2023-02-03T04:42:12;101162.28;;;7.63;100.00
20424;BME280;10371;49.042;8.002;2023-02-03T04:43:12;101169.16;;;7.64;100.00
20424;BME280;10371;49.042;8.002;2023-02-03T04:44:14;101165.66;;;7.65;100.00
20424;BME280;10371;49.042;8.002;2023-02-03T04:45:14;101171.53;;;7.68;99.73
20424;BME280;10371;49.042;8.002;2023-02-03T04:46:14;101179.31;;;7.68;99.62
20424;BME280;10371;49.042;8.002;2023-02-03T04:47:15;101169.06;;;7.65;99.58
20424;BME280;10371;49.042;8.002;2023-02-03T04:48:16;101175.19;;;7.64;99.51
20424;BME280;10371;49.042;8.002;2023-02-03T04:49:16;101170.06;;;7.63;99.48
20424;BME280;10371;49.042;8.002;2023-02-03T04:50:16;101169.31;;;7.60;99.88
20424;BME280;10371;49.042;8.002;2023-02-03T04:51:17;101169.84;;;7.67;99.89
20424;BME280;10371;49.042;8.002;2023-02-03T04:52:17;101160.63;;;7.61;99.98
20424;BME280;10371;49.042;8.002;2023-02-03T04:53:17;101159.53;;;7.66;99.91
20424;BME280;10371;49.042;8.002;2023-02-03T04:54:17;101161.25;;;7.67;99.77
20424;BME280;10371;49.042;8.002;2023-02-03T04:55:18;101148.44;;;7.64;99.67
20424;BME280;10371;49.042;8.002;2023-02-03T04:56:18;101155.28;;;7.65;99.38
20424;BME280;10371;49.042;8.002;2023-02-03T04:57:18;101155.28;;;7.65;99.56
20424;BME280;10371;49.042;8.002;2023-02-03T04:58:19;101150.94;;;7.65;99.66
20424;BME280;10371;49.042;8.002;2023-02-03T04:59:19;101163.00;;;7.66;99.67
20424;BME280;10371;49.042;8.002;2023-02-03T05:00:19;101158.94;;;7.60;99.53
20424;BME280;10371;49.042;8.002;2023-02-03T05:01:20;101162.44;;;7.59;99.73
20424;BME280;10371;49.042;8.002;2023-02-03T05:02:20;101162.28;;;7.63;99.79
20424;BME280;10371;49.042;8.002;2023-02-03T05:03:20;101159.97;;;7.56;100.00
20424;BME280;10371;49.042;8.002;2023-02-03T05:04:21;101161.75;;;7.56;100.00
20424;BME280;10371;49.042;8.002;2023-02-03T05:05:21;101163.66;;;7.52;100.00
20424;BME280;10371;49.042;8.002;2023-02-03T05:06:26;101166.22;;;7.52;100.00
20424;BME280;10371;49.042;8.002;2023-02-03T05:07:31;101167.28;;;7.48;100.00
20424;BME280;10371;49.042;8.002;2023-02-03T05:08:32;101170.94;;;7.44;100.00
20424;BME280;10371;49.042;8.002;2023-02-03T05:09:32;101182.91;;;7.47;100.00
20424;BME280;10371;49.042;8.002;2023-02-03T05:10:32;101187.31;;;7.45;100.00
20424;BME280;10371;49.042;8.002;2023-02-03T05:11:32;101175.88;;;7.49;100.00
20424;BME280;10371;49.042;8.002;2023-02-03T05:12:33;101172.41;;;7.50;100.00
20424;BME280;10371;49.042;8.002;2023-02-03T05:13:33;101175.03;;;7.48;100.00
20424;BME280;10371;49.042;8.002;2023-02-03T05:14:33;101184.38;;;7.52;100.00
20424;BME280;10371;49.042;8.002;2023-02-03T05:15:34;101172.44;;;7.48;100.00
20424;BME280;10371;49.042;8.002;2023-02-03T05:16:34;101175.00;;;7.50;100.00
20424;BME280;10371;49.042;8.002;2023-02-03T05:17:34;101183.75;;;7.47;100.00
20424;BME280;10371;49.042;8.002;2023-02-03T05:18:39;101176.16;;;7.43;100.00
20424;BME280;10371;49.042;8.002;2023-02-03T05:19:39;101181.28;;;7.44;100.00
20424;BME280;10371;49.042;8.002;2023-02-03T05:20:40;101180.44;;;7.44;100.00
20424;BME280;10371;49.042;8.002;2023-02-03T05:21:40;101172.06;;;7.38;100.00
20424;BME280;10371;49.042;8.002;2023-02-03T05:22:40;101163.31;;;7.41;100.00
20424;BME280;10371;49.042;8.002;2023-02-03T05:23:41;101174.50;;;7.42;100.00
20424;BME280;10371;49.042;8.002;2023-02-03T05:24:41;101170.97;;;7.43;100.00
20424;BME280;10371;49.042;8.002;2023-02-03T05:25:42;101170.28;;;7.39;100.00
20424;BME280;10371;49.042;8.002;2023-02-03T05:26:43;101154.06;;;7.35;100.00
20424;BME280;10371;49.042;8.002;2023-02-03T05:27:43;101158.19;;;7.39;100.00
20424;BME280;10371;49.042;8.002;2023-02-03T05:28:43;101148.78;;;7.37;100.00
20424;BME280;10371;49.042;8.002;2023-02-03T05:29:43;101154.94;;;7.34;100.00
20424;BME280;10371;49.042;8.002;2023-02-03T05:30:44;101153.00;;;7.39;100.00
20424;BME280;10371;49.042;8.002;2023-02-03T05:31:44;101155.63;;;7.38;100.00
20424;BME280;10371;49.042;8.002;2023-02-03T05:32:44;101156.56;;;7.37;100.00
20424;BME280;10371;49.042;8.002;2023-02-03T05:33:44;101154.13;;;7.34;100.00
20424;BME280;10371;49.042;8.002;2023-02-03T05:34:45;101149.75;;;7.34;100.00
20424;BME280;10371;49.042;8.002;2023-02-03T05:35:45;101160.06;;;7.36;100.00
20424;BME280;10371;49.042;8.002;2023-02-03T05:36:45;101164.47;;;7.34;100.00
20424;BME280;10371;49.042;8.002;2023-02-03T05:37:46;101166.09;;;7.36;100.00
20424;BME280;10371;49.042;8.002;2023-02-03T05:38:48;101178.25;;;7.34;100.00
20424;BME280;10371;49.042;8.002;2023-02-03T05:39:48;101185.19;;;7.34;100.00
20424;BME280;10371;49.042;8.002;2023-02-03T05:40:49;101171.31;;;7.35;100.00
20424;BME280;10371;49.042;8.002;2023-02-03T05:42:08;101168.00;;;7.33;100.00
20424;BME280;10371;49.042;8.002;2023-02-03T05:43:08;101156.69;;;7.34;100.00
20424;BME280;10371;49.042;8.002;2023-02-03T05:44:08;101158.53;;;7.32;100.00
20424;BME280;10371;49.042;8.002;2023-02-03T05:45:09;101162.81;;;7.33;100.00
20424;BME280;10371;49.042;8.002;2023-02-03T05:46:09;101164.53;;;7.32;100.00
20424;BME280;10371;49.042;8.002;2023-02-03T05:47:09;101151.81;;;7.28;100.00
20424;BME280;10371;49.042;8.002;2023-02-03T05:48:10;101150.25;;;7.24;100.00
20424;BME280;10371;49.042;8.002;2023-02-03T05:49:11;101146.13;;;7.20;100.00
20424;BME280;10371;49.042;8.002;2023-02-03T05:50:11;101141.84;;;7.19;100.00